Login

Current METAR

KOGD 221053Z AUTO 09003KT 10SM OVC039 06/03 A2982 RMK AO2 SLP080 T00610033

Contact 2017-01-16T18:42:02+00:00

Contact & Connect

262-AX-PILOT (297-4568) • info@flyaxiom.com

Your Name (required)

Your Email (required)

Your Message

Click here for directions.